Frances E. Haden — WX9254 — position and weather

sailwx.info

Track history (hours):
 
Tides and Currents Weather Stations Pressure Air Temp Water Temp Dewpoint Dewpoint Depression Visibility Wind Speed Wind Dir Waves Ship Positions

Frances E. Haden

Owner: G & H Towing Company, GALVESTON, TX. More information available from US FCC via Universal Licensing System and Coast Guard Vessel Documentation Center.

Last reported at 2018-Apr-20 16:11 UTC. Time now 2018-Apr-21 07:55 UTC.
Position N 29°44' W 095°09'.

Length 28 m; draft 4.5 m.

Type: Tug. MMSI: 366919940.

Date/timePositionNaut miles runAvg speedWind from/ knotsBaromVisibWave heightAir tempDewpointWater temp
2018-Apr-20 16:11N 29°44' W 095°09'1 6.1
2018-Apr-20 16:00N 29°44' W 095°08'1 1.4
2018-Apr-20 15:12N 29°45' W 095°06'2 0.2
2018-Apr-20 01:37N 29°44' W 095°09'2 8.2
2018-Apr-20 01:23N 29°44' W 095°07'1 1.1
2018-Apr-20 00:53N 29°45' W 095°07'0 0.3
2018-Apr-20 00:30N 29°45' W 095°07'0 0.1
2018-Apr-20 00:00N 29°45' W 095°07'0 0.8
2018-Apr-19 23:30N 29°44' W 095°07'0 0.1
2018-Apr-19 20:30N 29°44' W 095°07'2 1.6
2018-Apr-19 19:19N 29°46' W 095°05'0 0.3
2018-Apr-19 18:59N 29°46' W 095°05'2 3.1
2018-Apr-19 18:28N 29°45' W 095°07'0 0.0
2018-Apr-19 17:58N 29°45' W 095°07'0 0.0
2018-Apr-19 17:28N 29°45' W 095°07'0 0.0
2018-Apr-19 16:58N 29°45' W 095°07'0 0.0
2018-Apr-19 16:28N 29°45' W 095°07'0 0.0
2018-Apr-19 15:58N 29°44' W 095°07'0 0.0
2018-Apr-19 15:30N 29°44' W 095°07'0 0.6
2018-Apr-19 14:58N 29°44' W 095°07'0 0.0
2018-Apr-19 14:30N 29°44' W 095°07'0 0.0
2018-Apr-19 13:45N 29°44' W 095°07'0 0.0
2018-Apr-19 13:30N 29°44' W 095°07'0 0.2
2018-Apr-19 11:58N 29°44' W 095°07'0 0.0
2018-Apr-19 11:15N 29°45' W 095°07'0 0.0
2018-Apr-19 10:51N 29°45' W 095°07'3 0.1
2018-Apr-18 00:01N 29°45' W 095°10'0 0.0
2018-Apr-17 23:38N 29°45' W 095°10'0 0.0
2018-Apr-17 23:20N 29°45' W 095°10'2 4.1
2018-Apr-17 22:57N 29°44' W 095°09'1 1.2
2018-Apr-17 22:11N 29°45' W 095°10'6 0.4
2018-Apr-17 06:44N 29°44' W 095°16'1 2.1
2018-Apr-17 06:29N 29°44' W 095°16'0 0.3
2018-Apr-17 05:58N 29°44' W 095°16'4 0.5
2018-Apr-16 21:02N 29°45' W 095°11'2 7.8
2018-Apr-16 20:43N 29°44' W 095°09'1 6.6
2018-Apr-16 20:30N 29°44' W 095°07'0 0.0
2018-Apr-16 19:42N 29°44' W 095°07'0 0.0
2018-Apr-16 19:09N 29°44' W 095°07'0 0.0
2018-Apr-16 18:45N 29°44' W 095°07'0 0.0
2018-Apr-16 18:21N 29°44' W 095°07'0 0.0
2018-Apr-16 18:00N 29°44' W 095°07'0 0.0
2018-Apr-16 17:24N 29°44' W 095°07'0 0.0
2018-Apr-16 17:00N 29°44' W 095°07'0 0.0
2018-Apr-16 16:30N 29°44' W 095°07'0 0.0
2018-Apr-16 16:00N 29°44' W 095°07'0 0.0
2018-Apr-16 15:27N 29°44' W 095°07'0 0.0
2018-Apr-16 15:00N 29°44' W 095°07'0 0.0
2018-Apr-16 14:27N 29°44' W 095°07'0 0.0
2018-Apr-16 12:58N 29°44' W 095°07'0 0.7
2018-Apr-16 12:29N 29°44' W 095°07'0 0.1
2018-Apr-16 10:55N 29°45' W 095°06'0 0.5
2018-Apr-16 10:30N 29°44' W 095°07'1 0.9
2018-Apr-16 09:13N 29°45' W 095°06'1 2.2
2018-Apr-16 08:43N 29°44' W 095°07'0 0.2
2018-Apr-16 08:03N 29°44' W 095°07'0 0.0
2018-Apr-16 07:36N 29°44' W 095°07'0 0.0
2018-Apr-16 07:24N 29°44' W 095°07'0 0.0
2018-Apr-16 06:45N 29°44' W 095°07'1 0.4
2018-Apr-16 04:54N 29°44' W 095°07'1 0.2
2018-Apr-16 01:03N 29°44' W 095°07'0 0.0
2018-Apr-16 00:39N 29°44' W 095°07'0 0.0
2018-Apr-16 00:27N 29°44' W 095°07'0 0.0
2018-Apr-15 22:51N 29°44' W 095°07'0 0.0
2018-Apr-15 22:30N 29°44' W 095°07'1 1.5
2018-Apr-15 21:53N 29°44' W 095°08'0 0.9
2018-Apr-15 21:28N 29°44' W 095°07'1 1.4
2018-Apr-15 20:59N 29°44' W 095°07'0 0.1
2018-Apr-15 19:39N 29°44' W 095°07'0 1.0
2018-Apr-15 19:26N 29°44' W 095°07'0 0.0
2018-Apr-15 18:59N 29°44' W 095°07'0 0.0
2018-Apr-15 18:26N 29°44' W 095°07'0 0.0
2018-Apr-15 17:56N 29°44' W 095°07'0 0.0
2018-Apr-15 17:30N 29°44' W 095°07'0 0.0
2018-Apr-15 17:00N 29°44' W 095°07'0 0.0
2018-Apr-15 16:30N 29°44' W 095°07'0 0.0
2018-Apr-15 16:00N 29°44' W 095°07'0 0.0
2018-Apr-15 15:18N 29°44' W 095°07'0 0.0
2018-Apr-15 15:00N 29°44' W 095°07'0 0.3
2018-Apr-15 14:27N 29°44' W 095°07'2 3.8
2018-Apr-15 13:58N 29°44' W 095°09'2 0.0
2018-Apr-13 23:37N 29°44' W 095°07'0 0.3
2018-Apr-13 23:28N 29°44' W 095°07'7 0.3
2018-Apr-13 02:02N 29°44' W 095°15'1 0.5
2018-Apr-13 00:22N 29°44' W 095°16'0 0.0
2018-Apr-12 10:32N 29°44' W 095°16'1 7.1
2018-Apr-12 10:21N 29°43' W 095°15'0 0.4
2018-Apr-12 09:43N 29°43' W 095°14'1 2.6
2018-Apr-12 09:30N 29°43' W 095°14'1 1.0
2018-Apr-12 08:39N 29°43' W 095°15'0 0.0
2018-Apr-12 05:30N 29°43' W 095°15'0 0.9
2018-Apr-12 04:58N 29°43' W 095°15'3 4.3
2018-Apr-12 04:23N 29°44' W 095°12'0 0.0
2018-Apr-12 01:15N 29°44' W 095°12'2 3.8
2018-Apr-12 00:50N 29°45' W 095°11'2 4.6
2018-Apr-12 00:30N 29°44' W 095°09'3 4.0
2018-Apr-11 23:48N 29°45' W 095°06'1 0.1
2018-Apr-11 17:28N 29°44' W 095°07'1 1.9
2018-Apr-11 16:59N 29°44' W 095°08'1 1.1
2018-Apr-11 16:26N 29°44' W 095°07'2 4.1
2018-Apr-11 15:59N 29°46' W 095°05'2 1.8
2018-Apr-11 14:58N 29°44' W 095°07'0 0.0
2018-Apr-11 14:28N 29°44' W 095°07'0 0.0
2018-Apr-11 13:55N 29°44' W 095°07'0 0.0
2018-Apr-11 13:28N 29°44' W 095°07'0 0.0
2018-Apr-11 12:55N 29°44' W 095°07'0 0.0
2018-Apr-11 12:28N 29°44' W 095°07'0 0.0
2018-Apr-11 06:28N 29°44' W 095°07'1 1.1
2018-Apr-11 05:53N 29°44' W 095°08'1 1.7
2018-Apr-11 05:27N 29°44' W 095°07'0 0.0
2018-Apr-11 00:32N 29°44' W 095°07'0 0.0
2018-Apr-11 00:11N 29°44' W 095°07'1 1.2
2018-Apr-10 23:34N 29°45' W 095°06'1 8.1
2018-Apr-10 23:30N 29°44' W 095°07'0 0.1
2018-Apr-10 21:41N 29°44' W 095°07'0 0.0
2018-Apr-10 21:20N 29°44' W 095°07'1 1.6
2018-Apr-10 20:26N 29°45' W 095°06'1 2.5
2018-Apr-10 19:55N 29°44' W 095°07'  
Track history (hours):
 
Tides and Currents Weather Stations Pressure Air Temp Water Temp Dewpoint Dewpoint Depression Visibility Wind Speed Wind Dir Waves Ship Positions

Frances E. Haden

Owner: G & H Towing Company, GALVESTON, TX. More information available from US FCC via Universal Licensing System and Coast Guard Vessel Documentation Center.

Last reported at 2018-Apr-20 16:11 UTC. Time now 2018-Apr-21 07:55 UTC.
Position N 29°44' W 095°09'.

Length 28 m; draft 4.5 m.

Type: Tug. MMSI: 366919940.

Date/timePositionNaut miles runAvg speedWind from/ knotsBaromVisibWave heightAir tempDewpointWater temp
2018-Apr-20 16:11N 29°44' W 095°09'1 6.1
2018-Apr-20 16:00N 29°44' W 095°08'1 1.4
2018-Apr-20 15:12N 29°45' W 095°06'2 0.2
2018-Apr-20 01:37N 29°44' W 095°09'2 8.2
2018-Apr-20 01:23N 29°44' W 095°07'1 1.1
2018-Apr-20 00:53N 29°45' W 095°07'0 0.3
2018-Apr-20 00:30N 29°45' W 095°07'0 0.1
2018-Apr-20 00:00N 29°45' W 095°07'0 0.8
2018-Apr-19 23:30N 29°44' W 095°07'0 0.1
2018-Apr-19 20:30N 29°44' W 095°07'2 1.6
2018-Apr-19 19:19N 29°46' W 095°05'0 0.3
2018-Apr-19 18:59N 29°46' W 095°05'2 3.1
2018-Apr-19 18:28N 29°45' W 095°07'0 0.0
2018-Apr-19 17:58N 29°45' W 095°07'0 0.0
2018-Apr-19 17:28N 29°45' W 095°07'0 0.0
2018-Apr-19 16:58N 29°45' W 095°07'0 0.0
2018-Apr-19 16:28N 29°45' W 095°07'0 0.0
2018-Apr-19 15:58N 29°44' W 095°07'0 0.0
2018-Apr-19 15:30N 29°44' W 095°07'0 0.6
2018-Apr-19 14:58N 29°44' W 095°07'0 0.0
2018-Apr-19 14:30N 29°44' W 095°07'0 0.0
2018-Apr-19 13:45N 29°44' W 095°07'0 0.0
2018-Apr-19 13:30N 29°44' W 095°07'0 0.2
2018-Apr-19 11:58N 29°44' W 095°07'0 0.0
2018-Apr-19 11:15N 29°45' W 095°07'0 0.0
2018-Apr-19 10:51N 29°45' W 095°07'3 0.1
2018-Apr-18 00:01N 29°45' W 095°10'0 0.0
2018-Apr-17 23:38N 29°45' W 095°10'0 0.0
2018-Apr-17 23:20N 29°45' W 095°10'2 4.1
2018-Apr-17 22:57N 29°44' W 095°09'1 1.2
2018-Apr-17 22:11N 29°45' W 095°10'6 0.4
2018-Apr-17 06:44N 29°44' W 095°16'1 2.1
2018-Apr-17 06:29N 29°44' W 095°16'0 0.3
2018-Apr-17 05:58N 29°44' W 095°16'4 0.5
2018-Apr-16 21:02N 29°45' W 095°11'2 7.8
2018-Apr-16 20:43N 29°44' W 095°09'1 6.6
2018-Apr-16 20:30N 29°44' W 095°07'0 0.0
2018-Apr-16 19:42N 29°44' W 095°07'0 0.0
2018-Apr-16 19:09N 29°44' W 095°07'0 0.0
2018-Apr-16 18:45N 29°44' W 095°07'0 0.0
2018-Apr-16 18:21N 29°44' W 095°07'0 0.0
2018-Apr-16 18:00N 29°44' W 095°07'0 0.0
2018-Apr-16 17:24N 29°44' W 095°07'0 0.0
2018-Apr-16 17:00N 29°44' W 095°07'0 0.0
2018-Apr-16 16:30N 29°44' W 095°07'0 0.0
2018-Apr-16 16:00N 29°44' W 095°07'0 0.0
2018-Apr-16 15:27N 29°44' W 095°07'0 0.0
2018-Apr-16 15:00N 29°44' W 095°07'0 0.0
2018-Apr-16 14:27N 29°44' W 095°07'0 0.0
2018-Apr-16 12:58N 29°44' W 095°07'0 0.7
2018-Apr-16 12:29N 29°44' W 095°07'0 0.1
2018-Apr-16 10:55N 29°45' W 095°06'0 0.5
2018-Apr-16 10:30N 29°44' W 095°07'1 0.9
2018-Apr-16 09:13N 29°45' W 095°06'1 2.2
2018-Apr-16 08:43N 29°44' W 095°07'0 0.2
2018-Apr-16 08:03N 29°44' W 095°07'0 0.0
2018-Apr-16 07:36N 29°44' W 095°07'0 0.0
2018-Apr-16 07:24N 29°44' W 095°07'0 0.0
2018-Apr-16 06:45N 29°44' W 095°07'1 0.4
2018-Apr-16 04:54N 29°44' W 095°07'1 0.2
2018-Apr-16 01:03N 29°44' W 095°07'0 0.0
2018-Apr-16 00:39N 29°44' W 095°07'0 0.0
2018-Apr-16 00:27N 29°44' W 095°07'0 0.0
2018-Apr-15 22:51N 29°44' W 095°07'0 0.0
2018-Apr-15 22:30N 29°44' W 095°07'1 1.5
2018-Apr-15 21:53N 29°44' W 095°08'0 0.9
2018-Apr-15 21:28N 29°44' W 095°07'1 1.4
2018-Apr-15 20:59N 29°44' W 095°07'0 0.1
2018-Apr-15 19:39N 29°44' W 095°07'0 1.0
2018-Apr-15 19:26N 29°44' W 095°07'0 0.0
2018-Apr-15 18:59N 29°44' W 095°07'0 0.0
2018-Apr-15 18:26N 29°44' W 095°07'0 0.0
2018-Apr-15 17:56N 29°44' W 095°07'0 0.0
2018-Apr-15 17:30N 29°44' W 095°07'0 0.0
2018-Apr-15 17:00N 29°44' W 095°07'0 0.0
2018-Apr-15 16:30N 29°44' W 095°07'0 0.0
2018-Apr-15 16:00N 29°44' W 095°07'0 0.0
2018-Apr-15 15:18N 29°44' W 095°07'0 0.0
2018-Apr-15 15:00N 29°44' W 095°07'0 0.3
2018-Apr-15 14:27N 29°44' W 095°07'2 3.8
2018-Apr-15 13:58N 29°44' W 095°09'2 0.0
2018-Apr-13 23:37N 29°44' W 095°07'0 0.3
2018-Apr-13 23:28N 29°44' W 095°07'7 0.3
2018-Apr-13 02:02N 29°44' W 095°15'1 0.5
2018-Apr-13 00:22N 29°44' W 095°16'0 0.0
2018-Apr-12 10:32N 29°44' W 095°16'1 7.1
2018-Apr-12 10:21N 29°43' W 095°15'0 0.4
2018-Apr-12 09:43N 29°43' W 095°14'1 2.6
2018-Apr-12 09:30N 29°43' W 095°14'1 1.0
2018-Apr-12 08:39N 29°43' W 095°15'0 0.0
2018-Apr-12 05:30N 29°43' W 095°15'0 0.9
2018-Apr-12 04:58N 29°43' W 095°15'3 4.3
2018-Apr-12 04:23N 29°44' W 095°12'0 0.0
2018-Apr-12 01:15N 29°44' W 095°12'2 3.8
2018-Apr-12 00:50N 29°45' W 095°11'2 4.6
2018-Apr-12 00:30N 29°44' W 095°09'3 4.0
2018-Apr-11 23:48N 29°45' W 095°06'1 0.1
2018-Apr-11 17:28N 29°44' W 095°07'1 1.9
2018-Apr-11 16:59N 29°44' W 095°08'1 1.1
2018-Apr-11 16:26N 29°44' W 095°07'2 4.1
2018-Apr-11 15:59N 29°46' W 095°05'2 1.8
2018-Apr-11 14:58N 29°44' W 095°07'0 0.0
2018-Apr-11 14:28N 29°44' W 095°07'0 0.0
2018-Apr-11 13:55N 29°44' W 095°07'0 0.0
2018-Apr-11 13:28N 29°44' W 095°07'0 0.0
2018-Apr-11 12:55N 29°44' W 095°07'0 0.0
2018-Apr-11 12:28N 29°44' W 095°07'0 0.0
2018-Apr-11 06:28N 29°44' W 095°07'1 1.1
2018-Apr-11 05:53N 29°44' W 095°08'1 1.7
2018-Apr-11 05:27N 29°44' W 095°07'0 0.0
2018-Apr-11 00:32N 29°44' W 095°07'0 0.0
2018-Apr-11 00:11N 29°44' W 095°07'1 1.2
2018-Apr-10 23:34N 29°45' W 095°06'1 8.1
2018-Apr-10 23:30N 29°44' W 095°07'0 0.1
2018-Apr-10 21:41N 29°44' W 095°07'0 0.0
2018-Apr-10 21:20N 29°44' W 095°07'1 1.6
2018-Apr-10 20:26N 29°45' W 095°06'1 2.5
2018-Apr-10 19:55N 29°44' W 095°07'  

Dump ship's entire track history